createdAt,value
2018-02-23T00:01:11.796Z,29.73
2018-02-23T00:03:39.238Z,29.00
2018-02-23T00:06:06.680Z,34.80
2018-02-23T00:08:34.886Z,35.30
2018-02-23T00:11:02.330Z,30.87
2018-02-23T00:13:29.771Z,29.57
2018-02-23T00:15:57.211Z,34.63
2018-02-23T00:18:33.127Z,35.67
2018-02-23T00:21:00.564Z,32.13
2018-02-23T00:23:28.011Z,39.93
2018-02-23T00:25:56.217Z,28.30
2018-02-23T00:28:24.428Z,36.20
2018-02-23T00:30:51.875Z,28.40
2018-02-23T00:33:19.315Z,35.40
2018-02-23T00:35:46.752Z,28.77
2018-02-23T00:38:14.962Z,35.30
2018-02-23T00:40:42.412Z,30.90
2018-02-23T00:43:09.852Z,29.33
2018-02-23T00:45:37.299Z,37.43
2018-02-23T00:48:04.750Z,35.60
2018-02-23T00:50:32.191Z,34.23
2018-02-23T00:52:59.635Z,32.93
2018-02-23T00:55:27.896Z,36.37
2018-02-23T00:57:55.324Z,30.60
2018-02-23T01:00:23.179Z,34.97
2018-02-23T01:02:50.628Z,31.40
2018-02-23T01:05:18.071Z,33.40
2018-02-23T01:07:45.511Z,36.53
2018-02-23T01:10:12.952Z,36.20
2018-02-23T01:12:40.396Z,35.23
2018-02-23T01:15:08.603Z,35.03
2018-02-23T01:17:36.807Z,32.97
2018-02-23T01:20:04.255Z,38.43
2018-02-23T01:22:31.717Z,36.00
2018-02-23T01:24:59.159Z,34.47
2018-02-23T01:27:26.595Z,34.20
2018-02-23T01:29:54.040Z,35.83
2018-02-23T01:32:21.508Z,33.90
2018-02-23T01:34:48.956Z,35.07
2018-02-23T01:37:17.163Z,32.03
2018-02-23T01:39:45.375Z,38.77
2018-02-23T01:42:12.819Z,40.50
2018-02-23T01:44:40.269Z,38.77
2018-02-23T01:47:07.709Z,36.97
2018-02-23T01:49:35.916Z,40.23
2018-02-23T01:52:03.360Z,37.37
2018-02-23T01:54:30.806Z,34.97
2018-02-23T01:56:58.248Z,40.30
2018-02-23T01:59:27.279Z,34.53
2018-02-23T02:01:54.726Z,39.50
2018-02-23T02:04:22.167Z,38.53
2018-02-23T02:06:49.611Z,46.47
2018-02-23T02:09:17.052Z,35.53
2018-02-23T02:11:44.491Z,46.10
2018-02-23T02:14:11.935Z,40.03
2018-02-23T02:16:40.144Z,33.70
2018-02-23T02:19:08.354Z,42.53
2018-02-23T02:21:35.796Z,41.63
2018-02-23T02:24:03.240Z,37.17
2018-02-23T02:26:30.688Z,43.00
2018-02-23T02:28:58.907Z,35.80
2018-02-23T02:31:26.348Z,45.10
2018-02-23T02:33:53.804Z,41.53
2018-02-23T02:36:21.541Z,41.70
2018-02-23T02:38:49.753Z,39.03
2018-02-23T02:41:17.199Z,37.70
2018-02-23T02:43:44.640Z,38.90
2018-02-23T02:46:12.106Z,44.50
2018-02-23T02:48:39.539Z,41.80
2018-02-23T02:51:06.992Z,40.63
2018-02-23T02:53:34.430Z,48.27
2018-02-23T02:56:01.877Z,40.07
2018-02-23T02:58:29.322Z,36.63
2018-02-23T03:00:56.772Z,44.10
2018-02-23T03:03:24.217Z,35.80
2018-02-23T03:05:51.663Z,38.33
2018-02-23T03:08:19.104Z,36.60
2018-02-23T03:10:46.558Z,40.43
2018-02-23T03:13:13.996Z,30.23
2018-02-23T03:15:41.448Z,36.60
2018-02-23T03:18:08.889Z,30.30
2018-02-23T03:20:36.339Z,37.07
2018-02-23T03:23:03.785Z,36.93
2018-02-23T03:25:32.007Z,38.63
2018-02-23T03:27:59.444Z,31.90
2018-02-23T03:30:26.906Z,28.33
2018-02-23T03:32:54.345Z,28.23
2018-02-23T03:35:21.816Z,23.33
2018-02-23T03:37:49.254Z,25.80
2018-02-23T03:40:16.712Z,29.50
2018-02-23T03:42:44.148Z,21.80
2018-02-23T03:45:12.372Z,28.90
2018-02-23T03:47:39.820Z,28.80
2018-02-23T03:50:08.036Z,17.60
2018-02-23T03:52:36.236Z,26.60
2018-02-23T03:55:03.692Z,22.50
2018-02-23T03:57:31.132Z,28.53
2018-02-23T03:59:58.576Z,22.63
2018-02-23T04:02:26.018Z,18.97
2018-02-23T04:04:53.463Z,31.53
2018-02-23T04:07:20.907Z,20.97
2018-02-23T04:09:49.124Z,19.73
2018-02-23T04:12:16.611Z,18.47
2018-02-23T04:14:44.061Z,24.30
2018-02-23T04:17:12.266Z,29.43
2018-02-23T04:19:40.492Z,33.77
2018-02-23T04:22:07.932Z,22.70
2018-02-23T04:24:35.388Z,23.00
2018-02-23T04:27:02.833Z,21.70
2018-02-23T04:29:30.283Z,28.60
2018-02-23T04:31:58.492Z,22.67
2018-02-23T04:34:26.716Z,25.27
2018-02-23T04:36:54.157Z,24.80
2018-02-23T04:39:21.624Z,21.43
2018-02-23T04:41:49.096Z,23.63
2018-02-23T04:44:16.540Z,23.20
2018-02-23T04:46:43.990Z,21.60
2018-02-23T04:49:12.224Z,19.00
2018-02-23T04:51:40.414Z,30.80
2018-02-23T04:54:07.848Z,22.10
2018-02-23T04:56:35.297Z,24.27
2018-02-23T04:59:02.740Z,23.60
2018-02-23T05:01:30.956Z,24.73
2018-02-23T05:03:58.396Z,27.87
2018-02-23T05:06:25.848Z,24.77
2018-02-23T05:08:53.321Z,23.17
2018-02-23T05:11:20.765Z,30.43
2018-02-23T05:13:48.203Z,26.80
2018-02-23T05:16:15.659Z,23.17
2018-02-23T05:18:43.105Z,23.97
2018-02-23T05:21:10.550Z,32.97
2018-02-23T05:23:38.024Z,28.07
2018-02-23T05:26:05.479Z,25.40
2018-02-23T05:28:32.931Z,25.63
2018-02-23T05:31:00.384Z,22.60
2018-02-23T05:33:27.824Z,28.13
2018-02-23T05:35:55.281Z,23.87
2018-02-23T05:38:24.536Z,25.40
2018-02-23T05:40:51.988Z,31.27
2018-02-23T05:43:19.428Z,37.77
2018-02-23T05:45:46.876Z,34.10
2018-02-23T05:48:14.319Z,23.70
2018-02-23T05:50:41.763Z,29.20
2018-02-23T05:53:09.201Z,28.87
2018-02-23T05:55:36.712Z,24.50
2018-02-23T05:58:04.140Z,39.40
2018-02-23T06:00:31.590Z,27.63
2018-02-23T06:02:59.032Z,27.63
2018-02-23T06:05:26.520Z,27.90
2018-02-23T06:07:53.927Z,34.93
2018-02-23T06:10:21.368Z,29.47
2018-02-23T06:12:48.824Z,24.57
2018-02-23T06:15:16.264Z,29.97
2018-02-23T06:17:49.528Z,26.97
2018-02-23T06:20:32.577Z,26.23
2018-02-23T06:23:00.032Z,23.40
2018-02-23T06:25:27.468Z,29.37
2018-02-23T06:27:55.689Z,31.20
2018-02-23T06:30:23.136Z,31.83
2018-02-23T06:32:50.584Z,21.67
2018-02-23T06:35:18.027Z,25.87
2018-02-23T06:37:46.248Z,32.07
2018-02-23T06:40:13.697Z,26.13
2018-02-23T06:42:41.139Z,33.77
2018-02-23T06:45:08.577Z,26.57
2018-02-23T06:47:36.784Z,24.50
2018-02-23T06:50:04.227Z,31.30
2018-02-23T06:52:31.679Z,29.87
2018-02-23T06:54:59.116Z,31.90
2018-02-23T06:57:27.332Z,27.07
2018-02-23T06:59:54.769Z,27.73
2018-02-23T07:02:22.204Z,25.07
2018-02-23T07:04:49.660Z,29.47
2018-02-23T07:07:17.099Z,31.20
2018-02-23T07:09:44.543Z,30.03
2018-02-23T07:12:11.983Z,26.80
2018-02-23T07:14:40.200Z,29.23
2018-02-23T07:17:07.652Z,27.87
2018-02-23T07:19:35.099Z,30.40
2018-02-23T07:22:02.544Z,30.23
2018-02-23T07:24:29.992Z,24.87
2018-02-23T07:26:57.431Z,24.60
2018-02-23T07:29:24.888Z,31.50
2018-02-23T07:31:52.383Z,34.07
2018-02-23T07:34:19.772Z,29.80
2018-02-23T07:36:47.214Z,25.90
2018-02-23T07:39:15.431Z,27.93
2018-02-23T07:41:42.880Z,35.90
2018-02-23T07:44:11.100Z,27.70
2018-02-23T07:46:38.543Z,34.63
2018-02-23T07:49:06.010Z,34.33
2018-02-23T07:51:33.448Z,33.43
2018-02-23T07:54:00.888Z,30.17
2018-02-23T07:56:28.332Z,34.57
2018-02-23T07:58:55.772Z,34.40
2018-02-23T08:01:23.986Z,31.13
2018-02-23T08:03:51.436Z,30.10
2018-02-23T08:06:18.893Z,31.30
2018-02-23T08:08:46.324Z,27.47
2018-02-23T08:11:13.771Z,33.07
2018-02-23T08:13:41.211Z,35.33
2018-02-23T08:16:08.652Z,34.27
2018-02-23T08:18:36.860Z,26.03
2018-02-23T08:21:05.080Z,31.10
2018-02-23T08:23:32.523Z,35.20
2018-02-23T08:25:59.969Z,31.50
2018-02-23T08:28:27.407Z,29.10
2018-02-23T08:30:55.616Z,32.90
2018-02-23T08:33:23.055Z,31.70
2018-02-23T08:35:50.508Z,40.70
2018-02-23T08:38:17.950Z,36.23
2018-02-23T08:40:46.159Z,42.23
2018-02-23T08:43:13.600Z,32.40
2018-02-23T08:45:41.047Z,32.57
2018-02-23T08:48:08.487Z,36.07
2018-02-23T08:50:36.004Z,35.33
2018-02-23T08:53:03.444Z,31.40
2018-02-23T08:55:31.662Z,32.77
2018-02-23T08:57:59.123Z,34.27
2018-02-23T09:00:27.330Z,35.30
2018-02-23T09:02:55.544Z,33.93
2018-02-23T09:05:22.980Z,30.90
2018-02-23T09:07:50.419Z,36.13
2018-02-23T09:10:17.876Z,30.90
2018-02-23T09:12:45.320Z,26.57
2018-02-23T09:15:12.756Z,32.23
2018-02-23T09:17:40.204Z,27.20
2018-02-23T09:20:08.416Z,42.67
2018-02-23T09:22:35.864Z,28.97
2018-02-23T09:25:03.299Z,35.20
2018-02-23T09:27:30.755Z,31.00
2018-02-23T09:29:58.193Z,34.57
2018-02-23T09:32:38.734Z,38.80
2018-02-23T09:35:06.175Z,37.40
2018-02-23T09:37:33.620Z,38.60
2018-02-23T09:40:01.066Z,35.30
2018-02-23T09:42:29.276Z,38.87
2018-02-23T09:44:57.492Z,35.70
2018-02-23T09:47:24.944Z,36.07
2018-02-23T09:49:53.152Z,34.73
2018-02-23T09:52:20.603Z,31.90
2018-02-23T09:54:48.041Z,29.40
2018-02-23T09:57:15.503Z,30.30
2018-02-23T09:59:42.964Z,35.77
2018-02-23T10:02:11.164Z,32.97
2018-02-23T10:04:39.389Z,34.57
2018-02-23T10:07:06.825Z,32.80
2018-02-23T10:09:34.268Z,33.73
2018-02-23T10:12:01.714Z,35.60
2018-02-23T10:14:29.941Z,36.53
2018-02-23T10:16:57.394Z,37.77
2018-02-23T10:19:25.600Z,36.80
2018-02-23T10:21:53.045Z,37.63
2018-02-23T10:24:20.496Z,34.93
2018-02-23T10:26:47.934Z,36.47
2018-02-23T10:29:16.148Z,33.60
2018-02-23T10:31:43.583Z,33.50
2018-02-23T10:34:11.040Z,37.70
2018-02-23T10:36:38.480Z,32.30
2018-02-23T10:39:06.692Z,32.60
2018-02-23T10:41:34.144Z,32.40
2018-02-23T10:44:02.366Z,33.03
2018-02-23T10:46:29.803Z,33.00
2018-02-23T10:48:57.272Z,31.53
2018-02-23T10:51:24.712Z,30.23
2018-02-23T10:53:52.159Z,27.03
2018-02-23T10:56:20.368Z,39.80
2018-02-23T10:58:47.821Z,36.03
2018-02-23T11:01:15.260Z,35.07
2018-02-23T11:03:42.703Z,38.37
2018-02-23T11:06:10.916Z,34.87
2018-02-23T11:08:39.125Z,27.93
2018-02-23T11:11:06.580Z,33.97
2018-02-23T11:13:34.029Z,32.93
2018-02-23T11:16:01.486Z,34.30
2018-02-23T11:18:28.923Z,37.23
2018-02-23T11:20:57.140Z,32.70
2018-02-23T11:23:25.340Z,31.53
2018-02-23T11:25:52.787Z,33.17
2018-02-23T11:28:20.228Z,33.60
2018-02-23T11:30:47.680Z,34.87
2018-02-23T11:33:15.128Z,31.60
2018-02-23T11:35:42.580Z,31.70
2018-02-23T11:38:10.020Z,37.87
2018-02-23T11:40:38.233Z,41.67
2018-02-23T11:43:05.672Z,41.93
2018-02-23T11:45:33.124Z,31.70
2018-02-23T11:48:00.568Z,33.00
2018-02-23T11:50:28.025Z,31.90
2018-02-23T11:52:55.447Z,31.57
2018-02-23T11:55:22.933Z,35.93
2018-02-23T11:57:50.384Z,29.47
2018-02-23T12:00:18.587Z,32.47
2018-02-23T12:02:46.036Z,34.17
2018-02-23T12:05:13.475Z,30.80
2018-02-23T12:07:40.927Z,37.13
2018-02-23T12:10:09.131Z,31.60
2018-02-23T12:12:36.575Z,39.70
2018-02-23T12:15:04.015Z,30.83
2018-02-23T12:17:31.459Z,29.90
2018-02-23T12:19:58.909Z,38.00
2018-02-23T12:22:26.352Z,34.70
2018-02-23T12:24:53.792Z,34.43
2018-02-23T12:27:21.235Z,32.40
2018-02-23T12:29:49.439Z,31.30
2018-02-23T12:32:16.900Z,36.67
2018-02-23T12:34:44.344Z,31.83
2018-02-23T12:37:11.783Z,32.17
2018-02-23T12:39:39.999Z,56.83
2018-02-23T12:42:07.443Z,32.70
2018-02-23T12:44:34.917Z,34.23
2018-02-23T12:47:02.332Z,31.60
2018-02-23T12:49:29.788Z,32.03
2018-02-23T12:51:57.233Z,30.37
2018-02-23T12:54:24.675Z,31.90
2018-02-23T12:56:52.432Z,32.47
2018-02-23T12:59:19.876Z,29.40
2018-02-23T13:01:47.324Z,33.30
2018-02-23T13:04:14.767Z,33.00
2018-02-23T13:06:42.223Z,33.30
2018-02-23T13:09:09.684Z,31.07
2018-02-23T13:11:37.164Z,28.83
2018-02-23T13:14:04.662Z,34.10
2018-02-23T13:16:32.111Z,32.73
2018-02-23T13:19:00.315Z,33.57
2018-02-23T13:21:27.760Z,41.13
2018-02-23T13:23:56.708Z,31.27
2018-02-23T13:26:24.164Z,27.90
2018-02-23T13:28:51.599Z,35.70
2018-02-23T13:31:19.057Z,39.23
2018-02-23T13:33:46.510Z,26.73
2018-02-23T13:36:13.955Z,31.90
2018-02-23T13:38:41.395Z,32.43
2018-02-23T13:41:24.528Z,33.77
2018-02-23T13:43:52.738Z,34.73
2018-02-23T13:46:20.947Z,33.30
2018-02-23T13:48:48.396Z,30.70
2018-02-23T13:51:15.844Z,34.83
2018-02-23T13:53:45.127Z,31.90
2018-02-23T13:56:12.575Z,40.00
2018-02-23T13:58:40.031Z,29.70
2018-02-23T14:01:07.480Z,32.20
2018-02-23T14:03:34.924Z,28.63
2018-02-23T14:06:03.267Z,39.63
2018-02-23T14:08:30.712Z,34.80
2018-02-23T14:10:58.936Z,35.10
2018-02-23T14:13:26.375Z,33.57
2018-02-23T14:15:53.819Z,36.13
2018-02-23T14:18:21.272Z,37.93
2018-02-23T14:20:48.756Z,28.70
2018-02-23T14:23:16.948Z,35.10
2018-02-23T14:25:45.156Z,35.83
2018-02-23T14:28:12.593Z,27.57
2018-02-23T14:30:40.048Z,30.73
2018-02-23T14:33:07.491Z,34.40
2018-02-23T14:35:35.705Z,33.70
2018-02-23T14:38:03.144Z,35.17
2018-02-23T14:40:30.583Z,34.93
2018-02-23T14:42:58.034Z,35.60
2018-02-23T14:45:26.240Z,35.13
2018-02-23T14:47:53.703Z,34.70
2018-02-23T14:50:33.833Z,29.40
2018-02-23T14:53:01.288Z,36.77
2018-02-23T14:55:28.727Z,37.03
2018-02-23T14:57:56.168Z,34.13
2018-02-23T15:00:24.272Z,31.77
2018-02-23T15:02:51.716Z,26.57
2018-02-23T15:05:19.152Z,32.97
2018-02-23T15:07:46.603Z,33.73
2018-02-23T15:10:14.044Z,27.73
2018-02-23T15:12:42.252Z,36.33
2018-02-23T15:15:10.456Z,33.23
2018-02-23T15:17:37.904Z,35.40
2018-02-23T15:20:05.348Z,34.07
2018-02-23T15:22:32.796Z,35.80
2018-02-23T15:25:00.246Z,33.10
2018-02-23T15:27:27.692Z,32.87
2018-02-23T15:29:55.134Z,34.33
2018-02-23T15:32:24.196Z,28.30
2018-02-23T15:34:51.651Z,29.90
2018-02-23T15:37:19.088Z,30.73
2018-02-23T15:39:46.536Z,36.03
2018-02-23T15:42:13.980Z,28.57
2018-02-23T15:44:41.424Z,29.90
2018-02-23T15:47:08.864Z,31.97
2018-02-23T15:49:41.915Z,33.03
2018-02-23T15:52:17.175Z,30.90
2018-02-23T15:54:44.621Z,30.23
2018-02-23T15:57:15.499Z,27.10
2018-02-23T15:59:42.943Z,33.80
2018-02-23T16:02:10.383Z,35.77
2018-02-23T16:04:37.828Z,30.93
2018-02-23T16:07:05.269Z,31.17
2018-02-23T16:09:33.484Z,29.23
2018-02-23T16:12:01.688Z,25.93
2018-02-23T16:14:29.138Z,31.70
2018-02-23T16:16:56.571Z,36.47
2018-02-23T16:19:24.020Z,28.97
2018-02-23T16:21:52.224Z,34.43
2018-02-23T16:24:19.684Z,44.20
2018-02-23T16:26:47.124Z,34.63
2018-02-23T16:29:14.580Z,33.30
2018-02-23T16:31:42.780Z,32.40
2018-02-23T16:34:10.231Z,32.10
2018-02-23T16:36:38.443Z,37.70
2018-02-23T16:39:06.651Z,32.03
2018-02-23T16:41:34.095Z,37.20
2018-02-23T16:44:01.531Z,39.37
2018-02-23T16:46:28.984Z,30.20
2018-02-23T16:48:57.189Z,32.63
2018-02-23T16:51:24.636Z,35.67
2018-02-23T16:53:52.080Z,33.30
2018-02-23T16:56:19.537Z,40.50
2018-02-23T16:58:46.971Z,43.07
2018-02-23T17:01:14.424Z,31.97
2018-02-23T17:03:41.867Z,36.60
2018-02-23T17:06:10.080Z,38.10
2018-02-23T17:08:37.551Z,33.57
2018-02-23T17:11:05.748Z,37.03
2018-02-23T17:13:33.956Z,33.90
2018-02-23T17:16:01.407Z,35.00
2018-02-23T17:18:28.845Z,45.23
2018-02-23T17:20:56.287Z,32.43
2018-02-23T17:23:23.732Z,32.53
2018-02-23T17:25:51.187Z,32.40
2018-02-23T17:28:18.620Z,40.70
2018-02-23T17:30:46.832Z,36.53
2018-02-23T17:33:14.280Z,30.60
2018-02-23T17:35:41.738Z,37.70
2018-02-23T17:38:09.169Z,38.90
2018-02-23T17:40:37.371Z,39.80
2018-02-23T17:43:05.588Z,34.60
2018-02-23T17:45:33.031Z,39.53
2018-02-23T17:48:00.488Z,40.07
2018-02-23T17:50:27.927Z,39.27
2018-02-23T17:52:55.444Z,41.57
2018-02-23T17:55:22.880Z,30.80
2018-02-23T17:57:50.328Z,39.80
2018-02-23T18:00:17.773Z,34.77
2018-02-23T18:02:45.220Z,44.97
2018-02-23T18:05:12.659Z,36.97
2018-02-23T18:07:40.108Z,43.23
2018-02-23T18:10:07.553Z,43.03
2018-02-23T18:12:35.768Z,38.57
2018-02-23T18:15:03.213Z,38.47
2018-02-23T18:17:30.652Z,44.27
2018-02-23T18:19:58.100Z,41.57
2018-02-23T18:22:25.559Z,50.33
2018-02-23T18:24:53.785Z,40.03
2018-02-23T18:27:21.972Z,36.07
2018-02-23T18:29:49.428Z,46.83
2018-02-23T18:32:16.867Z,44.27
2018-02-23T18:34:44.335Z,42.13
2018-02-23T18:37:11.773Z,40.17
2018-02-23T18:39:39.221Z,37.03
2018-02-23T18:42:06.660Z,43.03
2018-02-23T18:44:34.112Z,35.57
2018-02-23T18:47:01.549Z,36.60
2018-02-23T18:49:28.992Z,37.53
2018-02-23T18:51:56.440Z,37.43
2018-02-23T18:54:23.898Z,41.00
2018-02-23T18:56:51.345Z,38.83
2018-02-23T18:59:18.792Z,39.70
2018-02-23T19:01:46.232Z,37.23
2018-02-23T19:04:13.691Z,36.53
2018-02-23T19:06:41.133Z,39.73
2018-02-23T19:09:08.585Z,39.27
2018-02-23T19:11:36.048Z,36.83
2018-02-23T19:14:03.524Z,39.80
2018-02-23T19:16:30.961Z,44.07
2018-02-23T19:18:58.417Z,43.00
2018-02-23T19:21:25.879Z,40.53
2018-02-23T19:23:53.328Z,51.03
2018-02-23T19:26:20.780Z,41.17
2018-02-23T19:28:48.224Z,45.20
2018-02-23T19:31:15.677Z,45.17
2018-02-23T19:33:43.115Z,41.77
2018-02-23T19:36:10.564Z,43.17
2018-02-23T19:38:38.004Z,38.60
2018-02-23T19:41:06.220Z,45.27
2018-02-23T19:43:33.663Z,37.60
2018-02-23T19:46:01.111Z,46.23
2018-02-23T19:48:28.555Z,45.73
2018-02-23T19:50:56.763Z,39.83
2018-02-23T19:53:24.212Z,38.73
2018-02-23T19:55:52.428Z,38.87
2018-02-23T19:58:20.646Z,44.90
2018-02-23T20:00:48.092Z,43.03
2018-02-23T20:03:16.296Z,42.03
2018-02-23T20:05:44.512Z,44.87
2018-02-23T20:08:11.956Z,39.57
2018-02-23T20:10:39.400Z,42.87
2018-02-23T20:13:06.835Z,43.77
2018-02-23T20:15:35.056Z,41.07
2018-02-23T20:18:02.509Z,41.33
2018-02-23T20:20:29.947Z,47.10
2018-02-23T20:22:57.404Z,44.80
2018-02-23T20:25:24.840Z,51.20
2018-02-23T20:27:52.288Z,45.40
2018-02-23T20:30:19.732Z,44.80
2018-02-23T20:32:47.176Z,46.43
2018-02-23T20:35:14.620Z,43.93
2018-02-23T20:37:42.076Z,46.67
2018-02-23T20:40:09.528Z,42.37
2018-02-23T20:42:36.990Z,44.07
2018-02-23T20:45:04.420Z,37.93
2018-02-23T20:47:31.869Z,50.10
2018-02-23T20:49:59.308Z,50.43
2018-02-23T20:52:26.760Z,46.20
2018-02-23T20:54:54.959Z,45.73
2018-02-23T20:57:22.426Z,48.97
2018-02-23T20:59:49.848Z,44.27
2018-02-23T21:02:17.304Z,42.73
2018-02-23T21:04:44.745Z,44.40
2018-02-23T21:07:12.193Z,43.20
2018-02-23T21:09:39.638Z,45.43
2018-02-23T21:12:07.847Z,46.40
2018-02-23T21:14:35.287Z,44.03
2018-02-23T21:17:02.740Z,47.00
2018-02-23T21:19:30.180Z,44.60
2018-02-23T21:21:57.637Z,40.00
2018-02-23T21:24:25.078Z,54.53
2018-02-23T21:26:52.524Z,43.37
2018-02-23T21:29:19.964Z,45.67
2018-02-23T21:31:47.416Z,43.70
2018-02-23T21:34:14.865Z,42.90
2018-02-23T21:36:42.325Z,37.83
2018-02-23T21:39:09.763Z,39.57
2018-02-23T21:41:49.146Z,49.80
2018-02-23T21:44:16.616Z,46.03
2018-02-23T21:46:44.063Z,48.83
2018-02-23T21:49:11.504Z,49.67
2018-02-23T21:51:38.951Z,47.03
2018-02-23T21:54:06.400Z,40.83
2018-02-23T21:56:33.852Z,42.70
2018-02-23T21:59:01.303Z,45.90
2018-02-23T22:01:28.751Z,39.20
2018-02-23T22:03:56.191Z,43.43
2018-02-23T22:06:23.648Z,50.40
2018-02-23T22:08:51.080Z,44.70
2018-02-23T22:11:18.520Z,40.10
2018-02-23T22:13:45.968Z,47.73
2018-02-23T22:16:13.413Z,51.63
2018-02-23T22:18:41.625Z,41.97
2018-02-23T22:21:09.072Z,50.93
2018-02-23T22:23:36.520Z,36.80
2018-02-23T22:26:03.962Z,42.97
2018-02-23T22:28:31.407Z,47.70
2018-02-23T22:30:58.856Z,48.87
2018-02-23T22:33:26.313Z,46.87
2018-02-23T22:35:53.751Z,46.87
2018-02-23T22:38:21.212Z,50.43
2018-02-23T22:40:48.655Z,47.37
2018-02-23T22:43:16.100Z,46.10
2018-02-23T22:45:43.540Z,46.13
2018-02-23T22:48:10.987Z,45.60
2018-02-23T22:50:38.429Z,48.50
2018-02-23T22:53:05.880Z,41.00
2018-02-23T22:55:33.324Z,43.40
2018-02-23T22:58:01.545Z,50.90
2018-02-23T23:00:28.984Z,42.50
2018-02-23T23:02:56.432Z,47.93
2018-02-23T23:05:23.871Z,41.23
2018-02-23T23:07:51.319Z,50.77
2018-02-23T23:10:18.755Z,44.83
2018-02-23T23:12:46.209Z,34.50
2018-02-23T23:15:13.662Z,41.90
2018-02-23T23:17:41.107Z,43.80
2018-02-23T23:20:08.563Z,37.83
2018-02-23T23:22:36.012Z,38.10
2018-02-23T23:25:04.232Z,38.57
2018-02-23T23:27:31.676Z,38.63
2018-02-23T23:29:59.124Z,52.03
2018-02-23T23:32:26.564Z,40.63
2018-02-23T23:34:54.793Z,41.23
2018-02-23T23:37:22.228Z,57.57
2018-02-23T23:39:49.672Z,40.03
2018-02-23T23:42:17.112Z,41.80
2018-02-23T23:44:44.560Z,41.43
2018-02-23T23:47:12.000Z,40.03
2018-02-23T23:49:39.452Z,47.20
2018-02-23T23:52:06.898Z,36.37
2018-02-23T23:54:34.352Z,35.80
2018-02-23T23:57:01.794Z,38.00
2018-02-23T23:59:30.040Z,47.73
